createdAt,value
2018-09-26T00:01:15.459Z,5.08
2018-09-26T00:02:15.392Z,5.06
2018-09-26T00:04:08.164Z,5.04
2018-09-26T00:05:08.085Z,5.08
2018-09-26T00:07:00.841Z,5.05
2018-09-26T00:08:00.776Z,5.05
2018-09-26T00:09:53.549Z,5.05
2018-09-26T00:10:53.479Z,5.08
2018-09-26T00:12:46.256Z,5.15
2018-09-26T00:13:46.178Z,5.06
2018-09-26T00:15:38.931Z,5.19
2018-09-26T00:16:38.870Z,5.04
2018-09-26T00:18:31.653Z,5.04
2018-09-26T00:19:31.574Z,5.04
2018-09-26T00:21:24.328Z,5.12
2018-09-26T00:22:24.258Z,5.23
2018-09-26T00:24:17.052Z,5.12
2018-09-26T00:25:16.970Z,5.17
2018-09-26T00:27:09.722Z,5.09
2018-09-26T00:28:09.656Z,5.17
2018-09-26T00:30:02.451Z,5.09
2018-09-26T00:31:02.372Z,5.04
2018-09-26T00:32:55.138Z,5.08
2018-09-26T00:33:55.058Z,5.06
2018-09-26T00:35:47.861Z,4.94
2018-09-26T00:36:47.773Z,4.99
2018-09-26T00:38:40.533Z,5.08
2018-09-26T00:39:40.483Z,4.96
2018-09-26T00:41:33.229Z,4.94
2018-09-26T00:42:33.125Z,4.75
2018-09-26T00:44:25.934Z,4.79
2018-09-26T00:45:25.890Z,4.79
2018-09-26T00:47:18.569Z,4.79
2018-09-26T00:48:18.507Z,4.72
2018-09-26T00:50:11.275Z,4.77
2018-09-26T00:51:11.192Z,4.71
2018-09-26T00:53:03.967Z,4.72
2018-09-26T00:54:03.898Z,4.68
2018-09-26T00:55:56.666Z,4.57
2018-09-26T00:56:56.580Z,4.64
2018-09-26T00:58:49.348Z,4.69
2018-09-26T00:59:49.267Z,4.69
2018-09-26T01:01:42.037Z,4.80
2018-09-26T01:02:41.958Z,4.72
2018-09-26T01:04:34.734Z,4.77
2018-09-26T01:05:34.660Z,4.71
2018-09-26T01:07:27.410Z,4.84
2018-09-26T01:08:27.343Z,4.87
2018-09-26T01:10:20.098Z,4.88
2018-09-26T01:11:20.018Z,4.91
2018-09-26T01:13:12.767Z,4.94
2018-09-26T01:14:12.700Z,4.96
2018-09-26T01:16:05.473Z,5.02
2018-09-26T01:17:05.400Z,4.96
2018-09-26T01:18:58.146Z,5.02
2018-09-26T01:19:58.082Z,4.99
2018-09-26T01:21:50.877Z,5.06
2018-09-26T01:22:50.798Z,5.05
2018-09-26T01:24:43.557Z,5.09
2018-09-26T01:25:43.480Z,5.05
2018-09-26T01:27:36.270Z,5.04
2018-09-26T01:28:36.198Z,5.02
2018-09-26T01:30:28.968Z,5.05
2018-09-26T01:31:28.880Z,5.06
2018-09-26T01:33:21.644Z,5.04
2018-09-26T01:34:21.574Z,5.02
2018-09-26T01:36:14.348Z,5.11
2018-09-26T01:37:14.266Z,5.17
2018-09-26T01:39:07.030Z,5.37
2018-09-26T01:40:06.962Z,5.26
2018-09-26T01:41:59.723Z,5.41
2018-09-26T01:42:59.641Z,5.40
2018-09-26T01:44:52.403Z,5.44
2018-09-26T01:45:52.323Z,5.35
2018-09-26T01:47:45.079Z,5.41
2018-09-26T01:48:45.004Z,5.42
2018-09-26T01:50:37.778Z,5.48
2018-09-26T01:51:37.700Z,5.45
2018-09-26T01:53:30.456Z,5.35
2018-09-26T01:54:30.384Z,5.40
2018-09-26T01:56:23.176Z,5.44
2018-09-26T01:57:23.097Z,5.40
2018-09-26T01:59:15.842Z,5.45
2018-09-26T02:00:15.773Z,5.37
2018-09-26T02:02:08.547Z,5.48
2018-09-26T02:03:08.471Z,5.52
2018-09-26T02:05:01.229Z,5.55
2018-09-26T02:06:01.156Z,5.56
2018-09-26T02:07:53.901Z,5.60
2018-09-26T02:08:53.836Z,5.60
2018-09-26T02:10:46.613Z,5.52
2018-09-26T02:11:46.524Z,5.63
2018-09-26T02:13:39.295Z,5.58
2018-09-26T02:14:39.230Z,5.66
2018-09-26T02:16:31.990Z,5.70
2018-09-26T02:17:31.923Z,5.93
2018-09-26T02:19:24.665Z,5.99
2018-09-26T02:20:24.592Z,5.98
2018-09-26T02:22:17.361Z,6.08
2018-09-26T02:23:17.283Z,6.17
2018-09-26T02:25:10.071Z,6.39
2018-09-26T02:26:09.991Z,6.35
2018-09-26T02:28:02.749Z,6.30
2018-09-26T02:29:02.683Z,6.38
2018-09-26T02:30:55.449Z,6.40
2018-09-26T02:31:55.370Z,6.40
2018-09-26T02:33:48.122Z,6.51
2018-09-26T02:34:48.056Z,6.43
2018-09-26T02:36:40.837Z,6.38
2018-09-26T02:37:40.754Z,6.50
2018-09-26T02:39:33.506Z,6.40
2018-09-26T02:40:33.437Z,6.35
2018-09-26T02:42:26.205Z,6.38
2018-09-26T02:43:26.138Z,6.25
2018-09-26T02:45:18.889Z,6.16
2018-09-26T02:46:18.807Z,5.98
2018-09-26T02:48:11.565Z,5.96
2018-09-26T02:49:11.522Z,5.88
2018-09-26T02:51:04.268Z,5.84
2018-09-26T02:52:04.184Z,5.74
2018-09-26T02:53:56.949Z,5.83
2018-09-26T02:54:56.868Z,5.80
2018-09-26T02:56:49.657Z,5.75
2018-09-26T02:57:49.566Z,5.77
2018-09-26T02:59:42.318Z,5.78
2018-09-26T03:00:42.250Z,5.70
2018-09-26T03:02:35.009Z,5.67
2018-09-26T03:03:34.930Z,5.77
2018-09-26T03:05:27.697Z,5.80
2018-09-26T03:06:27.613Z,5.67
2018-09-26T03:08:20.372Z,5.87
2018-09-26T03:09:20.298Z,5.87
2018-09-26T03:11:13.058Z,5.88
2018-09-26T03:12:12.981Z,5.95
2018-09-26T03:14:05.736Z,5.95
2018-09-26T03:15:05.671Z,5.96
2018-09-26T03:16:58.448Z,6.24
2018-09-26T03:17:58.366Z,6.28
2018-09-26T03:19:51.129Z,6.50
2018-09-26T03:20:51.063Z,6.51
2018-09-26T03:22:43.835Z,6.60
2018-09-26T03:23:43.761Z,6.55
2018-09-26T03:25:36.550Z,6.61
2018-09-26T03:26:36.446Z,6.69
2018-09-26T03:28:29.206Z,6.65
2018-09-26T03:29:29.141Z,6.69
2018-09-26T03:31:21.906Z,6.61
2018-09-26T03:32:21.823Z,6.64
2018-09-26T03:34:14.590Z,6.69
2018-09-26T03:35:14.522Z,6.69
2018-09-26T03:37:07.301Z,6.75
2018-09-26T03:38:07.223Z,6.63
2018-09-26T03:39:59.991Z,6.64
2018-09-26T03:40:59.916Z,6.78
2018-09-26T03:42:52.684Z,6.71
2018-09-26T03:43:52.595Z,6.73
2018-09-26T03:45:45.351Z,6.60
2018-09-26T03:46:45.274Z,6.69
2018-09-26T03:48:38.051Z,6.61
2018-09-26T03:49:37.968Z,6.58
2018-09-26T03:51:30.731Z,6.72
2018-09-26T03:52:30.652Z,6.71
2018-09-26T03:54:23.404Z,6.71
2018-09-26T03:55:23.335Z,6.60
2018-09-26T03:57:16.108Z,6.72
2018-09-26T03:58:16.029Z,6.72
2018-09-26T04:00:08.788Z,6.72
2018-09-26T04:01:08.718Z,6.69
2018-09-26T04:03:01.489Z,6.64
2018-09-26T04:04:01.414Z,6.65
2018-09-26T04:05:54.155Z,6.81
2018-09-26T04:06:54.095Z,6.81
2018-09-26T04:08:46.857Z,6.81
2018-09-26T04:09:46.771Z,6.78
2018-09-26T04:11:39.542Z,6.82
2018-09-26T04:12:39.576Z,6.82
2018-09-26T04:14:32.218Z,6.91
2018-09-26T04:15:32.211Z,6.94
2018-09-26T04:17:24.907Z,6.97
2018-09-26T04:18:24.829Z,6.96
2018-09-26T04:20:17.606Z,7.05
2018-09-26T04:21:17.517Z,7.01
2018-09-26T04:23:10.278Z,7.04
2018-09-26T04:24:10.196Z,7.05
2018-09-26T04:26:02.948Z,7.21
2018-09-26T04:27:03.196Z,7.18
2018-09-26T04:28:55.658Z,7.26
2018-09-26T04:29:55.570Z,7.23
2018-09-26T04:31:48.335Z,7.29
2018-09-26T04:32:48.350Z,7.24
2018-09-26T04:34:41.019Z,7.19
2018-09-26T04:35:40.950Z,7.36
2018-09-26T04:37:33.725Z,7.33
2018-09-26T04:38:33.687Z,7.30
2018-09-26T04:40:26.410Z,7.33
2018-09-26T04:41:26.325Z,7.34
2018-09-26T04:43:19.152Z,7.27
2018-09-26T04:44:19.010Z,7.24
2018-09-26T04:46:11.768Z,7.26
2018-09-26T04:47:11.703Z,7.23
2018-09-26T04:49:04.489Z,7.33
2018-09-26T04:50:04.398Z,7.33
2018-09-26T04:51:57.188Z,7.24
2018-09-26T04:52:57.086Z,7.29
2018-09-26T04:54:49.839Z,7.26
2018-09-26T04:55:49.769Z,7.26
2018-09-26T04:57:42.598Z,7.21
2018-09-26T04:58:42.462Z,7.24
2018-09-26T05:00:35.211Z,7.21
2018-09-26T05:01:35.140Z,7.26
2018-09-26T05:03:27.923Z,7.21
2018-09-26T05:04:27.840Z,7.27
2018-09-26T05:06:20.589Z,7.33
2018-09-26T05:07:20.519Z,7.32
2018-09-26T05:09:13.289Z,7.33
2018-09-26T05:10:13.222Z,7.27
2018-09-26T05:12:05.972Z,7.29
2018-09-26T05:13:05.893Z,7.29
2018-09-26T05:14:58.654Z,7.36
2018-09-26T05:15:58.821Z,7.42
2018-09-26T05:17:51.475Z,7.45
2018-09-26T05:18:51.492Z,7.47
2018-09-26T05:20:46.275Z,7.54
2018-09-26T05:21:46.204Z,7.51
2018-09-26T05:23:38.975Z,7.66
2018-09-26T05:24:38.895Z,7.58
2018-09-26T05:26:31.662Z,7.67
2018-09-26T05:27:31.584Z,7.70
2018-09-26T05:29:24.351Z,7.79
2018-09-26T05:30:24.322Z,7.76
2018-09-26T05:32:17.037Z,7.96
2018-09-26T05:33:16.960Z,7.95
2018-09-26T05:35:09.718Z,7.99
2018-09-26T05:36:09.652Z,8.02
2018-09-26T05:38:02.420Z,8.07
2018-09-26T05:39:02.335Z,8.14
2018-09-26T05:40:55.098Z,8.25
2018-09-26T05:41:55.031Z,8.17
2018-09-26T05:43:47.801Z,8.34
2018-09-26T05:44:47.722Z,8.29
2018-09-26T05:46:40.479Z,8.40
2018-09-26T05:47:40.415Z,8.42
2018-09-26T05:49:33.211Z,8.43
2018-09-26T05:50:33.135Z,8.50
2018-09-26T05:52:25.937Z,8.57
2018-09-26T05:53:25.841Z,8.63
2018-09-26T05:55:18.579Z,8.70
2018-09-26T05:56:18.515Z,8.76
2018-09-26T05:58:11.271Z,8.89
2018-09-26T05:59:11.192Z,8.93
2018-09-26T06:01:03.958Z,9.06
2018-09-26T06:02:03.882Z,9.19
2018-09-26T06:03:56.645Z,9.31
2018-09-26T06:04:56.566Z,9.31
2018-09-26T06:06:49.348Z,9.24
2018-09-26T06:07:49.282Z,9.37
2018-09-26T06:09:42.046Z,9.30
2018-09-26T06:10:41.965Z,9.16
2018-09-26T06:12:34.752Z,9.16
2018-09-26T06:13:34.670Z,9.31
2018-09-26T06:15:27.440Z,9.34
2018-09-26T06:16:27.365Z,9.32
2018-09-26T06:18:20.145Z,9.41
2018-09-26T06:19:20.080Z,9.53
2018-09-26T06:21:12.835Z,9.63
2018-09-26T06:22:12.769Z,9.74
2018-09-26T06:24:05.536Z,9.81
2018-09-26T06:25:05.457Z,9.83
2018-09-26T06:26:58.209Z,9.92
2018-09-26T06:27:58.145Z,10.01
2018-09-26T06:29:50.935Z,10.04
2018-09-26T06:30:50.876Z,10.02
2018-09-26T06:32:43.622Z,10.01
2018-09-26T06:33:43.535Z,10.01
2018-09-26T06:35:36.323Z,9.96
2018-09-26T06:36:36.246Z,10.02
2018-09-26T06:38:29.085Z,10.01
2018-09-26T06:39:29.007Z,10.01
2018-09-26T06:41:21.759Z,9.92
2018-09-26T06:42:21.696Z,9.83
2018-09-26T06:44:14.468Z,9.86
2018-09-26T06:45:14.381Z,9.86
2018-09-26T06:47:07.226Z,9.77
2018-09-26T06:48:07.176Z,9.74
2018-09-26T06:49:59.941Z,9.86
2018-09-26T06:50:59.859Z,9.89
2018-09-26T06:52:52.622Z,9.89
2018-09-26T06:53:52.557Z,9.96
2018-09-26T06:55:45.333Z,9.96
2018-09-26T06:56:45.254Z,9.96
2018-09-26T06:58:38.041Z,9.95
2018-09-26T06:59:37.951Z,9.98
2018-09-26T07:01:30.727Z,9.96
2018-09-26T07:02:30.657Z,9.88
2018-09-26T07:04:23.420Z,9.85
2018-09-26T07:05:23.340Z,9.89
2018-09-26T07:07:16.094Z,9.98
2018-09-26T07:08:16.035Z,9.89
2018-09-26T07:10:08.800Z,10.18
2018-09-26T07:11:08.719Z,10.47
2018-09-26T07:13:01.512Z,10.65
2018-09-26T07:14:01.440Z,10.81
2018-09-26T07:15:54.225Z,11.30
2018-09-26T07:16:54.131Z,11.72
2018-09-26T07:18:46.893Z,12.03
2018-09-26T07:19:46.815Z,12.18
2018-09-26T07:21:39.591Z,12.54
2018-09-26T07:22:39.509Z,12.49
2018-09-26T07:24:32.284Z,12.63
2018-09-26T07:25:32.217Z,12.56
2018-09-26T07:27:24.990Z,12.54
2018-09-26T07:28:24.911Z,12.52
2018-09-26T07:30:17.709Z,12.56
2018-09-26T07:31:17.676Z,12.69
2018-09-26T07:33:10.400Z,12.88
2018-09-26T07:34:10.324Z,12.99
2018-09-26T07:36:03.089Z,13.54
2018-09-26T07:37:03.015Z,13.69
2018-09-26T07:38:55.782Z,14.17
2018-09-26T07:39:55.716Z,14.08
2018-09-26T07:41:48.488Z,14.05
2018-09-26T07:42:48.409Z,14.16
2018-09-26T07:44:41.170Z,14.24
2018-09-26T07:45:41.176Z,14.71
2018-09-26T07:47:33.878Z,15.98
2018-09-26T07:48:33.808Z,16.30
2018-09-26T07:50:26.577Z,16.57
2018-09-26T07:51:26.519Z,17.07
2018-09-26T07:53:19.284Z,17.70
2018-09-26T07:54:19.249Z,17.60
2018-09-26T07:56:11.967Z,18.02
2018-09-26T07:57:11.890Z,18.17
2018-09-26T07:59:04.673Z,17.87
2018-09-26T08:00:04.614Z,17.84
2018-09-26T08:01:57.371Z,17.71
2018-09-26T08:02:57.322Z,17.45
2018-09-26T08:04:50.069Z,17.03
2018-09-26T08:05:50.022Z,16.77
2018-09-26T08:07:42.784Z,16.14
2018-09-26T08:08:42.704Z,16.04
2018-09-26T08:10:35.500Z,16.44
2018-09-26T08:11:35.420Z,17.07
2018-09-26T08:13:28.167Z,17.70
2018-09-26T08:14:28.107Z,17.92
2018-09-26T08:16:20.884Z,18.53
2018-09-26T08:17:20.805Z,18.89
2018-09-26T08:19:13.583Z,19.02
2018-09-26T08:20:13.520Z,18.76
2018-09-26T08:22:06.315Z,18.04
2018-09-26T08:23:06.251Z,18.04
2018-09-26T08:24:59.022Z,18.50
2018-09-26T08:25:58.961Z,18.84
2018-09-26T08:27:51.758Z,19.13
2018-09-26T08:28:51.679Z,19.28
2018-09-26T08:30:44.489Z,19.27
2018-09-26T08:31:44.385Z,19.46
2018-09-26T08:33:37.152Z,19.43
2018-09-26T08:34:37.085Z,19.45
2018-09-26T08:36:29.872Z,20.00
2018-09-26T08:37:29.812Z,20.34
2018-09-26T08:39:22.560Z,19.15
2018-09-26T08:40:22.495Z,18.93
2018-09-26T08:42:15.323Z,18.51
2018-09-26T08:43:15.222Z,17.91
2018-09-26T08:45:07.989Z,17.68
2018-09-26T08:46:07.925Z,17.71
2018-09-26T08:48:00.726Z,17.06
2018-09-26T08:49:00.638Z,16.92
2018-09-26T08:50:53.447Z,16.48
2018-09-26T08:51:53.362Z,16.04
2018-09-26T08:53:46.188Z,15.92
2018-09-26T08:54:46.062Z,15.91
2018-09-26T08:56:38.834Z,15.74
2018-09-26T08:57:38.770Z,15.66
2018-09-26T08:59:31.580Z,15.55
2018-09-26T09:00:31.509Z,15.51
2018-09-26T09:02:24.279Z,15.34
2018-09-26T09:03:24.195Z,15.33
2018-09-26T09:05:16.965Z,15.46
2018-09-26T09:06:16.967Z,15.48
2018-09-26T09:08:09.696Z,15.46
2018-09-26T09:09:09.617Z,15.34
2018-09-26T09:11:02.396Z,15.44
2018-09-26T09:12:02.348Z,15.60
2018-09-26T09:13:55.123Z,15.78
2018-09-26T09:14:55.037Z,15.84
2018-09-26T09:16:47.859Z,15.86
2018-09-26T09:17:47.780Z,16.01
2018-09-26T09:19:40.520Z,16.07
2018-09-26T09:20:40.462Z,16.10
2018-09-26T09:22:33.254Z,16.26
2018-09-26T09:23:33.179Z,16.51
2018-09-26T09:25:25.948Z,16.85
2018-09-26T09:26:25.885Z,17.20
2018-09-26T09:28:18.665Z,17.71
2018-09-26T09:29:18.592Z,17.68
2018-09-26T09:31:11.364Z,18.32
2018-09-26T09:32:11.349Z,18.54
2018-09-26T09:34:04.085Z,18.50
2018-09-26T09:35:04.025Z,18.68
2018-09-26T09:36:56.786Z,18.29
2018-09-26T09:37:56.717Z,18.53
2018-09-26T09:39:49.500Z,18.16
2018-09-26T09:40:49.422Z,18.05
2018-09-26T09:42:42.214Z,17.92
2018-09-26T09:43:42.160Z,17.87
2018-09-26T09:45:34.913Z,17.98
2018-09-26T09:46:34.848Z,18.13
2018-09-26T09:48:27.654Z,18.32
2018-09-26T09:49:27.578Z,18.54
2018-09-26T09:51:20.392Z,18.36
2018-09-26T09:52:20.277Z,18.36
2018-09-26T09:54:13.059Z,18.47
2018-09-26T09:55:12.985Z,18.79
2018-09-26T09:57:05.750Z,18.82
2018-09-26T09:58:05.721Z,18.79
2018-09-26T09:59:58.473Z,18.89
2018-09-26T10:00:58.397Z,18.93
2018-09-26T10:02:51.257Z,18.76
2018-09-26T10:03:51.106Z,18.60
2018-09-26T10:05:43.872Z,18.89
2018-09-26T10:06:43.807Z,18.94
2018-09-26T10:08:36.625Z,19.07
2018-09-26T10:09:36.511Z,19.06
2018-09-26T10:11:29.272Z,19.21
2018-09-26T10:12:29.205Z,18.99
2018-09-26T10:14:22.060Z,18.34
2018-09-26T10:15:21.993Z,18.65
2018-09-26T10:17:14.703Z,18.71
2018-09-26T10:18:14.621Z,18.71
2018-09-26T10:20:07.579Z,18.74
2018-09-26T10:21:07.481Z,18.72
2018-09-26T10:23:00.287Z,18.60
2018-09-26T10:24:00.222Z,18.62
2018-09-26T10:25:53.041Z,18.51
2018-09-26T10:26:52.962Z,18.62
2018-09-26T10:28:45.747Z,18.59
2018-09-26T10:29:45.672Z,18.57
2018-09-26T10:31:38.441Z,18.74
2018-09-26T10:32:38.401Z,18.76
2018-09-26T10:34:32.020Z,18.79
2018-09-26T10:35:31.933Z,19.02
2018-09-26T10:37:24.699Z,19.25
2018-09-26T10:38:24.671Z,19.16
2018-09-26T10:40:17.416Z,18.99
2018-09-26T10:41:17.340Z,18.91
2018-09-26T10:43:10.162Z,18.64
2018-09-26T10:44:10.130Z,18.56
2018-09-26T10:46:02.865Z,18.53
2018-09-26T10:47:02.808Z,18.35
2018-09-26T10:48:55.604Z,18.38
2018-09-26T10:49:55.523Z,18.23
2018-09-26T10:51:48.299Z,17.96
2018-09-26T10:52:48.234Z,18.07
2018-09-26T10:54:41.052Z,17.99
2018-09-26T10:55:40.975Z,18.02
2018-09-26T10:57:33.764Z,18.05
2018-09-26T10:58:33.681Z,18.05
2018-09-26T11:00:26.480Z,18.16
2018-09-26T11:01:26.405Z,18.07
2018-09-26T11:03:19.198Z,18.10
2018-09-26T11:04:19.165Z,18.21
2018-09-26T11:06:11.883Z,18.17
2018-09-26T11:07:11.817Z,17.99
2018-09-26T11:09:04.608Z,17.84
2018-09-26T11:10:04.563Z,17.83
2018-09-26T11:11:57.292Z,18.05
2018-09-26T11:12:57.220Z,18.04
2018-09-26T11:14:50.001Z,18.16
2018-09-26T11:15:49.925Z,18.16
2018-09-26T11:17:42.689Z,18.25
2018-09-26T11:18:42.658Z,18.20
2018-09-26T11:20:35.404Z,18.20
2018-09-26T11:21:35.332Z,18.23
2018-09-26T11:23:28.119Z,18.28
2018-09-26T11:24:28.053Z,18.32
2018-09-26T11:26:20.931Z,18.20
2018-09-26T11:27:20.754Z,18.10
2018-09-26T11:29:13.539Z,18.07
2018-09-26T11:30:13.473Z,17.98
2018-09-26T11:32:06.252Z,17.80
2018-09-26T11:33:06.180Z,17.76
2018-09-26T11:34:58.939Z,17.76
2018-09-26T11:35:58.858Z,17.89
2018-09-26T11:37:51.623Z,17.76
2018-09-26T11:38:51.569Z,17.63
2018-09-26T11:40:44.361Z,17.65
2018-09-26T11:41:44.281Z,17.77
2018-09-26T11:43:37.049Z,17.65
2018-09-26T11:44:37.037Z,17.71
2018-09-26T11:46:29.789Z,17.60
2018-09-26T11:47:29.713Z,17.63
2018-09-26T11:49:22.491Z,17.74
2018-09-26T11:50:22.466Z,17.79
2018-09-26T11:52:15.273Z,18.10
2018-09-26T11:53:15.120Z,18.09
2018-09-26T11:55:07.917Z,18.16
2018-09-26T11:56:07.936Z,18.19
2018-09-26T11:58:00.706Z,18.09
2018-09-26T11:59:00.544Z,18.05
2018-09-26T12:00:53.324Z,18.13
2018-09-26T12:01:53.249Z,18.09
2018-09-26T12:03:46.016Z,18.01
2018-09-26T12:04:45.949Z,18.07
2018-09-26T12:06:38.722Z,18.05
2018-09-26T12:07:38.662Z,17.98
2018-09-26T12:09:31.433Z,17.84
2018-09-26T12:10:31.363Z,17.81
2018-09-26T12:12:24.238Z,17.71
2018-09-26T12:13:24.062Z,17.76
2018-09-26T12:15:16.873Z,17.65
2018-09-26T12:16:16.795Z,17.74
2018-09-26T12:18:09.562Z,17.91
2018-09-26T12:19:09.500Z,17.92
2018-09-26T12:21:02.275Z,17.77
2018-09-26T12:22:02.255Z,17.79
2018-09-26T12:23:54.965Z,17.86
2018-09-26T12:24:54.893Z,17.91
2018-09-26T12:26:47.671Z,17.84
2018-09-26T12:27:47.602Z,17.89
2018-09-26T12:29:40.387Z,17.83
2018-09-26T12:30:40.304Z,17.81
2018-09-26T12:32:33.077Z,17.96
2018-09-26T12:33:33.012Z,18.09
2018-09-26T12:35:25.794Z,18.09
2018-09-26T12:36:25.789Z,17.89
2018-09-26T12:38:18.493Z,17.95
2018-09-26T12:39:18.427Z,17.94
2018-09-26T12:41:11.273Z,18.02
2018-09-26T12:42:11.171Z,18.11
2018-09-26T12:44:03.908Z,18.20
2018-09-26T12:45:03.845Z,18.21
2018-09-26T12:46:56.645Z,18.14
2018-09-26T12:47:56.592Z,18.13
2018-09-26T12:49:49.336Z,18.25
2018-09-26T12:50:49.251Z,18.26
2018-09-26T12:52:42.070Z,18.05
2018-09-26T12:53:42.051Z,18.14
2018-09-26T12:55:34.795Z,18.13
2018-09-26T12:56:34.790Z,18.09
2018-09-26T12:58:27.436Z,18.07
2018-09-26T12:59:27.373Z,18.16
2018-09-26T13:01:20.178Z,18.26
2018-09-26T13:02:20.168Z,18.17
2018-09-26T13:04:12.879Z,18.36
2018-09-26T13:05:12.796Z,18.36
2018-09-26T13:07:05.594Z,18.36
2018-09-26T13:08:05.556Z,18.53
2018-09-26T13:09:58.283Z,18.38
2018-09-26T13:10:58.207Z,18.32
2018-09-26T13:12:51.017Z,18.31
2018-09-26T13:13:50.913Z,18.23
2018-09-26T13:15:43.691Z,18.34
2018-09-26T13:16:43.623Z,18.39
2018-09-26T13:18:36.393Z,18.32
2018-09-26T13:19:36.328Z,18.39
2018-09-26T13:21:29.177Z,18.20
2018-09-26T13:22:29.032Z,18.25
2018-09-26T13:24:21.894Z,18.19
2018-09-26T13:25:21.799Z,18.32
2018-09-26T13:27:14.515Z,18.56
2018-09-26T13:28:14.481Z,18.53
2018-09-26T13:30:07.316Z,18.54
2018-09-26T13:31:07.219Z,18.51
2018-09-26T13:32:59.933Z,18.50
2018-09-26T13:33:59.867Z,18.50
2018-09-26T13:35:52.636Z,18.36
2018-09-26T13:36:52.562Z,18.39
2018-09-26T13:38:45.328Z,18.26
2018-09-26T13:39:45.267Z,18.21
2018-09-26T13:41:38.045Z,18.35
2018-09-26T13:42:37.971Z,18.56
2018-09-26T13:44:30.775Z,18.44
2018-09-26T13:45:30.684Z,18.49
2018-09-26T13:47:23.483Z,18.68
2018-09-26T13:48:23.496Z,18.65
2018-09-26T13:50:16.211Z,18.64
2018-09-26T13:51:16.118Z,18.64
2018-09-26T13:53:08.900Z,18.60
2018-09-26T13:54:08.965Z,18.59
2018-09-26T13:56:01.627Z,18.51
2018-09-26T13:57:01.522Z,18.49
2018-09-26T13:58:54.302Z,18.49
2018-09-26T13:59:54.240Z,18.34
2018-09-26T14:01:47.044Z,18.35
2018-09-26T14:02:47.109Z,18.32
2018-09-26T14:04:39.721Z,18.34
2018-09-26T14:05:39.654Z,18.39
2018-09-26T14:07:32.443Z,18.34
2018-09-26T14:08:32.443Z,18.32
2018-09-26T14:10:25.184Z,18.25
2018-09-26T14:11:25.068Z,18.35
2018-09-26T14:13:17.837Z,18.56
2018-09-26T14:14:17.902Z,18.59
2018-09-26T14:16:10.550Z,18.62
2018-09-26T14:17:10.501Z,18.62
2018-09-26T14:19:03.263Z,18.74
2018-09-26T14:20:03.198Z,18.79
2018-09-26T14:21:55.966Z,18.76
2018-09-26T14:22:56.020Z,18.79
2018-09-26T14:24:48.664Z,18.84
2018-09-26T14:25:48.594Z,18.82
2018-09-26T14:27:41.370Z,18.74
2018-09-26T14:28:41.294Z,18.75
2018-09-26T14:30:34.239Z,18.76
2018-09-26T14:31:34.004Z,18.90
2018-09-26T14:33:26.837Z,18.91
2018-09-26T14:34:26.708Z,18.97
2018-09-26T14:36:19.504Z,18.68
2018-09-26T14:37:19.418Z,18.82
2018-09-26T14:39:12.268Z,18.76
2018-09-26T14:40:12.142Z,18.75
2018-09-26T14:42:04.932Z,18.68
2018-09-26T14:43:04.875Z,18.62
2018-09-26T14:44:57.624Z,18.59
2018-09-26T14:45:57.620Z,18.60
2018-09-26T14:47:50.345Z,18.62
2018-09-26T14:48:50.275Z,18.59
2018-09-26T14:50:43.047Z,18.53
2018-09-26T14:51:42.978Z,18.51
2018-09-26T14:53:35.748Z,18.35
2018-09-26T14:54:35.684Z,18.36
2018-09-26T14:56:28.511Z,18.39
2018-09-26T14:57:28.394Z,18.34
2018-09-26T14:59:21.161Z,18.39
2018-09-26T15:00:21.160Z,18.39
2018-09-26T15:02:13.925Z,18.34
2018-09-26T15:03:13.799Z,18.28
2018-09-26T15:05:06.624Z,18.20
2018-09-26T15:06:06.583Z,18.26
2018-09-26T15:07:59.334Z,18.20
2018-09-26T15:08:59.260Z,18.25
2018-09-26T15:10:52.027Z,18.20
2018-09-26T15:11:52.009Z,18.21
2018-09-26T15:13:44.739Z,18.19
2018-09-26T15:14:44.700Z,18.23
2018-09-26T15:16:37.472Z,18.17
2018-09-26T15:17:37.400Z,18.14
2018-09-26T15:19:30.166Z,18.17
2018-09-26T15:20:30.165Z,18.13
2018-09-26T15:22:22.991Z,17.94
2018-09-26T15:23:22.801Z,18.10
2018-09-26T15:25:15.561Z,18.01
2018-09-26T15:26:15.519Z,18.04
2018-09-26T15:28:08.374Z,18.01
2018-09-26T15:29:08.216Z,18.02
2018-09-26T15:31:00.970Z,18.02
2018-09-26T15:32:00.913Z,18.01
2018-09-26T15:33:53.698Z,17.87
2018-09-26T15:34:53.614Z,17.89
2018-09-26T15:36:46.390Z,17.91
2018-09-26T15:37:46.318Z,17.81
2018-09-26T15:39:39.085Z,17.81
2018-09-26T15:40:39.046Z,17.81
2018-09-26T15:42:31.798Z,17.77
2018-09-26T15:43:31.714Z,17.76
2018-09-26T15:45:24.491Z,17.81
2018-09-26T15:46:24.517Z,17.79
2018-09-26T15:48:17.325Z,17.68
2018-09-26T15:49:17.129Z,17.71
2018-09-26T15:51:09.911Z,17.68
2018-09-26T15:52:09.882Z,17.68
2018-09-26T15:54:02.620Z,17.57
2018-09-26T15:55:02.547Z,17.70
2018-09-26T15:56:55.316Z,17.58
2018-09-26T15:57:55.249Z,17.63
2018-09-26T15:59:48.002Z,17.76
2018-09-26T16:00:47.939Z,17.60
2018-09-26T16:02:40.717Z,17.70
2018-09-26T16:03:40.635Z,17.60
2018-09-26T16:05:33.411Z,17.65
2018-09-26T16:06:33.339Z,17.58
2018-09-26T16:08:26.233Z,17.63
2018-09-26T16:09:26.040Z,17.51
2018-09-26T16:11:18.810Z,17.53
2018-09-26T16:12:18.795Z,17.47
2018-09-26T16:14:11.595Z,17.49
2018-09-26T16:15:11.481Z,17.46
2018-09-26T16:17:04.275Z,17.51
2018-09-26T16:18:04.183Z,17.51
2018-09-26T16:19:56.945Z,17.39
2018-09-26T16:20:56.884Z,17.43
2018-09-26T16:22:49.682Z,17.38
2018-09-26T16:23:49.600Z,17.33
2018-09-26T16:25:42.387Z,17.42
2018-09-26T16:26:42.309Z,17.32
2018-09-26T16:28:35.081Z,17.36
2018-09-26T16:29:35.003Z,17.27
2018-09-26T16:31:27.775Z,17.25
2018-09-26T16:32:27.708Z,17.06
2018-09-26T16:34:20.540Z,17.10
2018-09-26T16:35:20.424Z,17.06
2018-09-26T16:37:13.218Z,16.99
2018-09-26T16:38:13.134Z,17.03
2018-09-26T16:40:05.939Z,16.98
2018-09-26T16:41:05.830Z,16.99
2018-09-26T16:42:58.636Z,16.98
2018-09-26T16:43:58.539Z,16.87
2018-09-26T16:45:51.305Z,16.72
2018-09-26T16:46:51.240Z,16.73
2018-09-26T16:48:44.018Z,16.67
2018-09-26T16:49:43.941Z,16.62
2018-09-26T16:51:36.717Z,16.52
2018-09-26T16:52:36.647Z,16.55
2018-09-26T16:54:29.435Z,16.65
2018-09-26T16:55:29.352Z,16.57
2018-09-26T16:57:22.114Z,16.57
2018-09-26T16:58:22.097Z,16.65
2018-09-26T17:00:14.845Z,16.66
2018-09-26T17:01:14.755Z,16.63
2018-09-26T17:03:07.545Z,16.54
2018-09-26T17:04:07.484Z,16.55
2018-09-26T17:06:00.250Z,16.62
2018-09-26T17:07:00.230Z,16.77
2018-09-26T17:08:52.956Z,16.77
2018-09-26T17:09:52.886Z,16.78
2018-09-26T17:11:45.653Z,16.77
2018-09-26T17:12:45.584Z,16.72
2018-09-26T17:14:38.380Z,16.80
2018-09-26T17:15:38.293Z,16.84
2018-09-26T17:17:31.052Z,16.91
2018-09-26T17:18:30.986Z,16.95
2018-09-26T17:20:23.927Z,16.95
2018-09-26T17:21:23.687Z,16.91
2018-09-26T17:23:16.464Z,16.85
2018-09-26T17:24:16.392Z,16.82
2018-09-26T17:26:09.164Z,16.85
2018-09-26T17:27:09.106Z,16.84
2018-09-26T17:29:01.873Z,16.84
2018-09-26T17:30:01.797Z,16.84
2018-09-26T17:31:54.558Z,16.85
2018-09-26T17:32:54.496Z,16.87
2018-09-26T17:34:47.344Z,16.92
2018-09-26T17:35:47.197Z,16.88
2018-09-26T17:37:40.019Z,17.00
2018-09-26T17:38:39.893Z,17.00
2018-09-26T17:40:32.666Z,16.98
2018-09-26T17:41:32.586Z,16.98
2018-09-26T17:43:25.439Z,16.96
2018-09-26T17:44:25.299Z,16.91
2018-09-26T17:46:18.152Z,16.88
2018-09-26T17:47:18.005Z,16.91
2018-09-26T17:49:10.817Z,16.90
2018-09-26T17:50:10.701Z,16.92
2018-09-26T17:52:03.470Z,16.92
2018-09-26T17:53:03.401Z,16.90
2018-09-26T17:54:56.173Z,17.02
2018-09-26T17:55:56.125Z,17.03
2018-09-26T17:57:48.860Z,16.95
2018-09-26T17:58:48.800Z,16.99
2018-09-26T18:00:41.573Z,16.92
2018-09-26T18:01:41.495Z,16.87
2018-09-26T18:03:34.288Z,16.92
2018-09-26T18:04:34.205Z,16.82
2018-09-26T18:06:26.964Z,16.82
2018-09-26T18:07:26.897Z,16.91
2018-09-26T18:09:19.700Z,16.91
2018-09-26T18:10:19.601Z,16.91
2018-09-26T18:12:12.365Z,16.92
2018-09-26T18:13:12.306Z,16.87
2018-09-26T18:15:05.087Z,16.87
2018-09-26T18:16:05.007Z,16.88
2018-09-26T18:17:57.812Z,16.91
2018-09-26T18:18:57.741Z,16.88
2018-09-26T18:20:50.519Z,16.87
2018-09-26T18:21:50.452Z,16.81
2018-09-26T18:23:43.236Z,16.78
2018-09-26T18:24:43.146Z,16.81
2018-09-26T18:26:35.900Z,16.85
2018-09-26T18:27:35.967Z,16.84
2018-09-26T18:29:28.616Z,16.84
2018-09-26T18:30:28.537Z,16.82
2018-09-26T18:32:21.316Z,16.82
2018-09-26T18:33:21.247Z,16.88
2018-09-26T18:35:14.018Z,16.78
2018-09-26T18:36:13.934Z,16.77
2018-09-26T18:38:06.702Z,16.78
2018-09-26T18:39:06.697Z,16.72
2018-09-26T18:40:59.415Z,16.75
2018-09-26T18:41:59.345Z,16.72
2018-09-26T18:43:52.116Z,16.72
2018-09-26T18:44:52.047Z,16.80
2018-09-26T18:46:44.794Z,16.65